Nesbit, Mississippi
Current Conditions -  °F | °C
As of 5:54 PM on Saturday 22 Nov 2014 (Local Time) from KMEM Reporting Station
Broken Clouds Broken Clouds  
Wind Chill: 57°   Ceiling: 12000
Heat Index: 57°   Visibility: 10mi
Dew Point: 41°   Wind: 5mph
Humidity: 55%   Direction: 100°E
Pressure: 30.04"   Gusts: NA
Location:  34.88°N, 90.01°W
Report Text: KMEM 222354Z 10004KT 10SM SCT050 BKN120 BKN250 14/05 A3004 RMK AO2 SLP172 T01390050 10200 20139 56014 $
Loading
Personal Weather Stations






























Interactive Weather Map New forecast layout! Learn more

10-Day Weather Forecast

Advertisements
Track Severe Weather on mobile